Ashville, Ohio
Current Conditions -  °F | °C
As of 11:35 AM on Friday 31 Oct 2014 (Local Time) from KLCK Reporting Station
Overcast Overcast  
Wind Chill: 39°   Ceiling: 4300
Heat Index: 44°   Visibility: 10mi
Dew Point: 40°   Wind: 9mph
Humidity: 84%   Direction: 190°S
Pressure: 29.93"   Gusts: NA
Location:  39.72°N, 82.95°W
Report Text: KLCK 311535Z AUTO 19008KT 10SM BKN043 OVC050 07/04 A2993 RMK AO2 T00690044
Loading
Personal Weather Stations






























Interactive Weather Map
Tropical Storm Tracking
New forecast layout! Learn more

10-Day Weather Forecast

Advertisements
Track Severe Weather on mobile